Kremmling, CO

5:14 PM MDT on May 05, 2015 (GMT -0600)
Kremmling | | Change Station
CLOSE
Current Station
Airport
Location: Kremmling,
Elevation: 7411 ft
Nearby Weather Stations

Elev 7411 ft 40.05 °N, 106.37 °W | Updated 39 minutes ago

Light Rain
Light Rain
50 °F
Feels Like 50 °F
N
8
Wind Variable Wind from South

Today
High -- | Low -- °F
--% Chance of Precip.
Yesterday
High -- | Low -- °F
Precip. -- in
6:00 AM 8:04 PM
Waning Gibbous, 97% visible
Pressure 29.83 in
Visibility 10.0 miles
Clouds Scattered Clouds 3800 ft
Scattered Clouds 4300 ft
Overcast 4800 ft
Dew Point 41 °F
Humidity 71%
Rainfall 0.11 in
Snow Depth Not available.
UV 2 out of 12
Pollen 3.10 out of 12
Air Quality Not available.
Flu Activity Sporadic
METAR K20V 052235Z AUTO 19007KT 10SM -RA SCT038 SCT043 OVC048 10/05 A2983 RMK AO2 P0003 LTG DSNT N

More Conditions Fewer Conditions

Pressure 29.83 in
Visibility 10.0 miles
Clouds Scattered Clouds 3800 ft
Scattered Clouds 4300 ft
Overcast 4800 ft
Dew Point 41 °F
Humidity 71%
Rainfall 0.11 in
Snow Depth Not available.
UV 2 out of 12
Pollen 3.10 out of 12
Air Quality Not available.
Flu Activity Sporadic
METAR K20V 052235Z AUTO 19007KT 10SM -RA SCT038 SCT043 OVC048 10/05 A2983 RMK AO2 P0003 LTG DSNT N

More Conditions Fewer Conditions

10-Day Weather Forecast

Almanac

Astronomy

May. 05, 2015 Rise Set
Actual Time
Civil Twilight
Nautical Twilight
Astronomical Twilight
Moon
Length of Visible Light
Length of Day
Tomorrow will be .
, % of the Moon is Illuminated

Today's Extremes

State Highs State Lows

Community

WunderPhotos

Upload Photos

1,819,008 photos uploaded!

WunderBlogs® & News

Nearby

Air Quality

  Air Quality AQ Index Pollutant
Not available.

Snow Depth

Station Depth Elevation

Earthquake Activity

City Distance Mag. Time & Date
Minimum magnitude displayed is 2.5.

Coastal Water Temperatures

Place Temperature

Stations

Nearby Weather Stations

Station Location Temp. Windchill Dew Point Humidity Wind Precip. Elev Updated Type